Terminal Aerodrome Forecast
Issued by NWS Blacksburg, VA

Home | Current Version | Previous Version | Text Only | Print | Product List | Glossary On
Versions: 1 2 3 4 5 6 7 8 9 10 11 12 13 14 15
000
FTUS41 KRNK 271142
TAFLYH
TAF
KLYH 271142Z 2712/2812 21004KT P6SM BKN100 BKN250
     FM271600 17007KT P6SM BKN060 BKN100 BKN250
     FM280400 00000KT P6SM SCT250=

USA.gov is the U.S. government's official web portal to all federal, state and local government web resources and services.